createdAt,value
2019-03-21T00:00:34.674Z,59.57
2019-03-21T00:01:34.849Z,45.17
2019-03-21T00:02:35.013Z,47.85
2019-03-21T00:03:35.203Z,44.68
2019-03-21T00:04:35.367Z,48.34
2019-03-21T00:05:35.542Z,45.65
2019-03-21T00:06:35.705Z,47.61
2019-03-21T00:07:35.879Z,45.90
2019-03-21T00:08:36.052Z,49.56
2019-03-21T00:09:36.226Z,65.19
2019-03-21T00:10:36.397Z,58.35
2019-03-21T00:11:36.576Z,67.87
2019-03-21T00:12:36.748Z,49.80
2019-03-21T00:13:36.922Z,47.61
2019-03-21T00:14:37.098Z,56.64
2019-03-21T00:15:37.266Z,60.55
2019-03-21T00:16:37.439Z,46.88
2019-03-21T00:18:37.780Z,51.51
2019-03-21T00:19:37.959Z,61.77
2019-03-21T00:20:38.141Z,48.58
2019-03-21T00:21:38.294Z,47.61
2019-03-21T00:22:38.467Z,50.05
2019-03-21T00:23:38.640Z,58.59
2019-03-21T00:24:38.809Z,63.96
2019-03-21T00:25:38.968Z,62.01
2019-03-21T00:26:39.139Z,75.93
2019-03-21T00:27:39.313Z,61.04
2019-03-21T00:28:39.487Z,49.80
2019-03-21T00:29:39.657Z,56.88
2019-03-21T00:30:39.827Z,52.49
2019-03-21T00:31:47.623Z,47.12
2019-03-21T00:32:40.161Z,45.90
2019-03-21T00:33:40.329Z,46.63
2019-03-21T00:34:40.502Z,47.12
2019-03-21T00:35:40.687Z,48.34
2019-03-21T00:36:40.844Z,50.29
2019-03-21T00:37:41.019Z,47.36
2019-03-21T00:38:41.185Z,61.77
2019-03-21T00:39:41.356Z,62.01
2019-03-21T00:40:43.833Z,46.63
2019-03-21T00:41:41.701Z,58.84
2019-03-21T00:42:41.872Z,64.94
2019-03-21T00:43:42.047Z,48.83
2019-03-21T00:44:42.212Z,56.15
2019-03-21T00:45:42.391Z,58.59
2019-03-21T00:46:42.561Z,58.84
2019-03-21T00:47:42.729Z,47.36
2019-03-21T00:48:42.897Z,65.43
2019-03-21T00:49:43.073Z,48.58
2019-03-21T00:50:43.250Z,55.91
2019-03-21T00:51:43.414Z,58.84
2019-03-21T00:52:43.590Z,66.65
2019-03-21T00:53:43.758Z,62.74
2019-03-21T00:54:43.932Z,58.35
2019-03-21T00:55:44.107Z,55.66
2019-03-21T00:56:44.276Z,52.00
2019-03-21T00:57:44.446Z,65.92
2019-03-21T00:58:44.617Z,45.90
2019-03-21T00:59:44.788Z,46.63
2019-03-21T01:00:44.961Z,45.41
2019-03-21T01:01:45.130Z,46.39
2019-03-21T01:02:45.301Z,47.36
2019-03-21T01:03:45.471Z,47.85
2019-03-21T01:04:45.641Z,55.42
2019-03-21T01:06:45.980Z,46.88
2019-03-21T01:07:46.157Z,58.35
2019-03-21T01:08:46.323Z,49.07
2019-03-21T01:09:46.497Z,47.61
2019-03-21T01:10:46.663Z,61.28
2019-03-21T01:11:46.833Z,53.22
2019-03-21T01:12:47.004Z,62.99
2019-03-21T01:14:47.354Z,49.80
2019-03-21T01:15:47.524Z,50.54
2019-03-21T01:16:47.681Z,49.07
2019-03-21T01:17:47.852Z,52.00
2019-03-21T01:18:48.033Z,48.34
2019-03-21T01:19:48.191Z,48.83
2019-03-21T01:20:48.354Z,50.78
2019-03-21T01:21:48.528Z,68.12
2019-03-21T01:22:48.690Z,56.88
2019-03-21T01:23:48.858Z,49.56
2019-03-21T01:24:49.025Z,53.22
2019-03-21T01:25:49.216Z,50.54
2019-03-21T01:26:49.362Z,57.86
2019-03-21T01:27:49.528Z,46.63
2019-03-21T01:28:49.698Z,52.73
2019-03-21T01:29:49.862Z,56.64
2019-03-21T01:30:50.034Z,46.88
2019-03-21T01:31:54.515Z,47.36
2019-03-21T01:32:50.432Z,46.14
2019-03-21T01:33:50.602Z,49.32
2019-03-21T01:34:50.774Z,47.36
2019-03-21T01:35:50.949Z,46.39
2019-03-21T01:36:51.118Z,48.58
2019-03-21T01:37:51.284Z,57.62
2019-03-21T01:38:51.459Z,53.22
2019-03-21T01:39:51.628Z,58.35
2019-03-21T01:40:51.797Z,56.64
2019-03-21T01:41:51.972Z,58.11
2019-03-21T01:42:52.144Z,46.39
2019-03-21T01:43:52.315Z,48.58
2019-03-21T01:44:52.480Z,47.85
2019-03-21T01:45:52.661Z,47.36
2019-03-21T01:46:52.830Z,52.73
2019-03-21T01:47:52.987Z,48.34
2019-03-21T01:48:53.163Z,57.13
2019-03-21T01:49:53.325Z,50.29
2019-03-21T01:50:53.496Z,51.03
2019-03-21T01:51:53.667Z,54.69
2019-03-21T01:52:53.835Z,49.07
2019-03-21T01:53:54.004Z,50.05
2019-03-21T01:54:54.185Z,45.90
2019-03-21T01:56:54.526Z,56.64
2019-03-21T01:57:54.695Z,57.13
2019-03-21T01:58:54.863Z,46.14
2019-03-21T01:59:55.033Z,46.39
2019-03-21T02:00:55.205Z,57.62
2019-03-21T02:01:55.380Z,47.61
2019-03-21T02:02:55.546Z,48.58
2019-03-21T02:03:55.715Z,49.80
2019-03-21T02:04:55.886Z,47.12
2019-03-21T02:05:56.058Z,48.10
2019-03-21T02:06:56.229Z,56.40
2019-03-21T02:07:56.396Z,51.76
2019-03-21T02:08:56.563Z,58.84
2019-03-21T02:09:56.735Z,57.86
2019-03-21T02:10:56.908Z,47.36
2019-03-21T02:11:57.075Z,67.38
2019-03-21T02:12:57.247Z,52.00
2019-03-21T02:13:57.422Z,53.96
2019-03-21T02:14:57.583Z,63.96
2019-03-21T02:15:59.266Z,59.33
2019-03-21T02:16:57.928Z,56.64
2019-03-21T02:17:58.101Z,54.69
2019-03-21T02:18:58.271Z,48.10
2019-03-21T02:19:58.489Z,57.86
2019-03-21T02:20:58.610Z,48.10
2019-03-21T02:21:58.781Z,52.73
2019-03-21T02:22:58.959Z,48.83
2019-03-21T02:23:59.122Z,48.34
2019-03-21T02:24:59.291Z,49.80
2019-03-21T02:25:59.471Z,51.27
2019-03-21T02:26:59.631Z,46.88
2019-03-21T02:27:59.804Z,54.93
2019-03-21T02:28:59.974Z,48.10
2019-03-21T02:30:00.420Z,47.12
2019-03-21T02:31:00.318Z,52.73
2019-03-21T02:32:00.470Z,47.85
2019-03-21T02:33:00.641Z,47.12
2019-03-21T02:34:00.812Z,46.88
2019-03-21T02:35:00.979Z,53.96
2019-03-21T02:36:01.150Z,48.83
2019-03-21T02:37:01.324Z,59.08
2019-03-21T02:38:01.493Z,50.05
2019-03-21T02:39:01.678Z,50.78
2019-03-21T02:40:01.874Z,47.36
2019-03-21T02:41:02.005Z,51.51
2019-03-21T02:42:02.178Z,51.76
2019-03-21T02:43:02.340Z,54.93
2019-03-21T02:44:02.518Z,69.58
2019-03-21T02:45:08.847Z,48.58
2019-03-21T02:46:02.863Z,50.54
2019-03-21T02:47:03.024Z,48.58
2019-03-21T02:48:03.214Z,49.56
2019-03-21T02:49:03.360Z,55.66
2019-03-21T02:50:03.531Z,48.10
2019-03-21T02:51:03.703Z,48.10
2019-03-21T02:52:03.871Z,50.05
2019-03-21T02:53:04.037Z,48.10
2019-03-21T02:54:04.209Z,49.56
2019-03-21T02:55:04.383Z,49.56
2019-03-21T02:56:04.560Z,52.00
2019-03-21T02:57:04.719Z,47.12
2019-03-21T02:58:04.894Z,48.34
2019-03-21T02:59:05.063Z,53.71
2019-03-21T03:00:05.231Z,52.73
2019-03-21T03:01:05.402Z,51.27
2019-03-21T03:02:05.579Z,49.32
2019-03-21T03:03:05.754Z,46.88
2019-03-21T03:04:05.919Z,61.04
2019-03-21T03:05:06.086Z,57.62
2019-03-21T03:06:06.258Z,49.80
2019-03-21T03:07:06.456Z,57.37
2019-03-21T03:08:06.594Z,58.84
2019-03-21T03:09:06.769Z,57.86
2019-03-21T03:10:06.954Z,52.25
2019-03-21T03:11:10.479Z,68.36
2019-03-21T03:12:07.297Z,55.42
2019-03-21T03:13:07.454Z,47.85
2019-03-21T03:14:07.629Z,47.61
2019-03-21T03:15:21.394Z,52.49
2019-03-21T03:16:07.965Z,52.98
2019-03-21T03:17:08.141Z,49.32
2019-03-21T03:18:08.317Z,58.84
2019-03-21T03:19:08.481Z,50.78
2019-03-21T03:20:08.652Z,49.80
2019-03-21T03:21:08.823Z,59.08
2019-03-21T03:22:09.002Z,52.49
2019-03-21T03:23:09.177Z,58.35
2019-03-21T03:24:09.339Z,57.86
2019-03-21T03:25:09.515Z,48.34
2019-03-21T03:26:09.688Z,66.41
2019-03-21T03:27:09.853Z,56.64
2019-03-21T03:28:10.028Z,70.56
2019-03-21T03:29:10.199Z,60.55
2019-03-21T03:30:10.373Z,61.28
2019-03-21T03:31:10.573Z,56.64
2019-03-21T03:32:10.726Z,58.84
2019-03-21T03:33:10.885Z,62.01
2019-03-21T03:34:11.060Z,57.86
2019-03-21T03:35:11.222Z,57.13
2019-03-21T03:36:11.392Z,55.66
2019-03-21T03:37:11.561Z,49.32
2019-03-21T03:38:11.733Z,57.37
2019-03-21T03:39:11.905Z,66.41
2019-03-21T03:40:12.087Z,50.78
2019-03-21T03:41:12.239Z,51.51
2019-03-21T03:42:12.408Z,54.20
2019-03-21T03:43:12.579Z,51.03
2019-03-21T03:44:12.751Z,50.78
2019-03-21T03:45:12.918Z,51.76
2019-03-21T03:46:13.098Z,53.22
2019-03-21T03:47:13.280Z,53.96
2019-03-21T03:48:13.421Z,53.96
2019-03-21T03:49:13.599Z,55.18
2019-03-21T03:50:13.755Z,49.80
2019-03-21T03:51:13.930Z,56.88
2019-03-21T03:52:14.096Z,51.27
2019-03-21T03:53:14.264Z,50.54
2019-03-21T03:54:14.434Z,49.56
2019-03-21T03:55:14.606Z,67.14
2019-03-21T03:56:14.777Z,49.32
2019-03-21T03:57:14.944Z,60.55
2019-03-21T03:58:15.121Z,61.04
2019-03-21T03:59:15.291Z,60.79
2019-03-21T04:00:15.468Z,61.52
2019-03-21T04:01:15.662Z,52.49
2019-03-21T04:02:15.851Z,52.00
2019-03-21T04:03:16.024Z,53.71
2019-03-21T04:04:16.177Z,52.00
2019-03-21T04:05:16.355Z,61.28
2019-03-21T04:06:16.519Z,59.81
2019-03-21T04:07:16.686Z,55.66
2019-03-21T04:08:16.866Z,58.59
2019-03-21T04:09:17.024Z,62.01
2019-03-21T04:10:17.206Z,53.96
2019-03-21T04:11:17.368Z,56.64
2019-03-21T04:12:17.533Z,50.78
2019-03-21T04:13:17.716Z,48.83
2019-03-21T04:14:17.872Z,49.56
2019-03-21T04:16:18.222Z,63.23
2019-03-21T04:17:18.375Z,59.57
2019-03-21T04:18:18.545Z,57.37
2019-03-21T04:19:18.741Z,62.01
2019-03-21T04:20:18.884Z,57.86
2019-03-21T04:21:19.049Z,51.76
2019-03-21T04:22:19.218Z,57.62
2019-03-21T04:23:19.390Z,58.84
2019-03-21T04:24:19.574Z,56.64
2019-03-21T04:25:19.726Z,52.73
2019-03-21T04:26:19.898Z,49.80
2019-03-21T04:27:20.089Z,49.07
2019-03-21T04:28:20.247Z,51.03
2019-03-21T04:29:20.405Z,51.51
2019-03-21T04:30:20.581Z,56.40
2019-03-21T04:31:20.750Z,50.54
2019-03-21T04:32:20.925Z,55.18
2019-03-21T04:33:22.711Z,49.56
2019-03-21T04:34:21.262Z,49.07
2019-03-21T04:35:21.435Z,49.32
2019-03-21T04:36:21.595Z,52.73
2019-03-21T04:37:21.759Z,61.77
2019-03-21T04:38:21.926Z,81.54
2019-03-21T04:39:22.100Z,81.30
2019-03-21T04:40:22.277Z,70.31
2019-03-21T04:41:22.444Z,56.15
2019-03-21T04:42:22.611Z,51.51
2019-03-21T04:43:22.774Z,54.93
2019-03-21T04:44:22.945Z,56.88
2019-03-21T04:45:23.118Z,51.76
2019-03-21T04:46:23.275Z,58.11
2019-03-21T04:47:23.444Z,54.20
2019-03-21T04:48:23.614Z,50.05
2019-03-21T04:49:23.784Z,51.03
2019-03-21T04:50:23.954Z,54.20
2019-03-21T04:51:24.138Z,49.80
2019-03-21T04:52:24.293Z,51.51
2019-03-21T04:53:26.645Z,58.84
2019-03-21T04:54:24.818Z,71.04
2019-03-21T04:55:24.864Z,54.20
2019-03-21T04:56:25.000Z,49.32
2019-03-21T04:57:25.197Z,50.05
2019-03-21T04:58:25.369Z,49.32
2019-03-21T04:59:25.531Z,60.30
2019-03-21T05:00:25.701Z,71.29
2019-03-21T05:01:25.874Z,67.87
2019-03-21T05:02:26.049Z,68.60
2019-03-21T05:03:26.196Z,70.31
2019-03-21T05:04:26.361Z,66.41
2019-03-21T05:05:26.521Z,56.88
2019-03-21T05:06:26.686Z,66.41
2019-03-21T05:07:26.853Z,73.97
2019-03-21T05:08:27.024Z,73.73
2019-03-21T05:09:27.190Z,73.73
2019-03-21T05:10:27.358Z,69.82
2019-03-21T05:11:27.514Z,66.65
2019-03-21T05:12:27.680Z,57.86
2019-03-21T05:13:27.855Z,53.22
2019-03-21T05:14:28.018Z,50.54
2019-03-21T05:15:28.190Z,70.07
2019-03-21T05:16:28.365Z,68.12
2019-03-21T05:17:28.529Z,51.76
2019-03-21T05:18:28.701Z,50.29
2019-03-21T05:19:28.867Z,58.59
2019-03-21T05:20:29.040Z,63.72
2019-03-21T05:21:29.233Z,53.71
2019-03-21T05:22:29.375Z,58.35
2019-03-21T05:23:29.546Z,68.36
2019-03-21T05:24:29.719Z,63.96
2019-03-21T05:25:29.885Z,64.94
2019-03-21T05:26:30.063Z,64.45
2019-03-21T05:27:30.231Z,59.81
2019-03-21T05:28:30.403Z,65.43
2019-03-21T05:29:30.576Z,73.24
2019-03-21T05:30:30.748Z,69.82
2019-03-21T05:31:30.916Z,60.79
2019-03-21T05:32:31.087Z,60.30
2019-03-21T05:33:31.261Z,58.35
2019-03-21T05:34:31.420Z,65.67
2019-03-21T05:35:31.575Z,64.94
2019-03-21T05:36:31.739Z,64.94
2019-03-21T05:37:31.909Z,57.62
2019-03-21T05:38:32.094Z,57.37
2019-03-21T05:39:32.275Z,62.26
2019-03-21T05:40:32.437Z,64.94
2019-03-21T05:41:32.608Z,67.38
2019-03-21T05:42:32.771Z,62.74
2019-03-21T05:43:32.946Z,66.41
2019-03-21T05:44:33.123Z,67.63
2019-03-21T05:45:33.272Z,70.07
2019-03-21T05:46:33.439Z,68.36
2019-03-21T05:47:33.611Z,62.26
2019-03-21T05:48:33.776Z,70.56
2019-03-21T05:49:33.938Z,60.55
2019-03-21T05:50:34.101Z,57.13
2019-03-21T05:51:34.276Z,63.48
2019-03-21T05:52:34.439Z,66.65
2019-03-21T05:53:34.625Z,62.26
2019-03-21T05:54:34.786Z,60.79
2019-03-21T05:55:34.957Z,59.08
2019-03-21T05:56:35.128Z,60.55
2019-03-21T05:57:35.298Z,68.85
2019-03-21T05:58:35.467Z,66.89
2019-03-21T05:59:35.667Z,58.59
2019-03-21T06:00:35.801Z,70.07
2019-03-21T06:01:35.965Z,80.81
2019-03-21T06:02:36.138Z,80.57
2019-03-21T06:03:36.307Z,80.57
2019-03-21T06:04:36.482Z,82.03
2019-03-21T06:05:36.660Z,81.05
2019-03-21T06:06:36.824Z,79.59
2019-03-21T06:07:36.984Z,60.30
2019-03-21T06:08:37.214Z,64.94
2019-03-21T06:09:37.317Z,78.86
2019-03-21T06:10:37.480Z,63.23
2019-03-21T06:11:39.600Z,64.21
2019-03-21T06:12:38.507Z,71.29
2019-03-21T06:13:38.107Z,62.74
2019-03-21T06:14:38.297Z,70.56
2019-03-21T06:15:38.413Z,69.58
2019-03-21T06:16:38.643Z,66.16
2019-03-21T06:17:38.816Z,66.41
2019-03-21T06:18:38.892Z,58.35
2019-03-21T06:19:39.054Z,63.48
2019-03-21T06:20:39.221Z,71.78
2019-03-21T06:21:39.410Z,62.26
2019-03-21T06:22:39.574Z,59.81
2019-03-21T06:23:39.739Z,64.21
2019-03-21T06:24:39.903Z,63.96
2019-03-21T06:25:40.086Z,62.74
2019-03-21T06:26:40.233Z,67.14
2019-03-21T06:27:40.394Z,67.14
2019-03-21T06:28:40.574Z,70.56
2019-03-21T06:29:40.747Z,69.82
2019-03-21T06:30:40.912Z,69.58
2019-03-21T06:31:41.087Z,69.34
2019-03-21T06:32:41.257Z,67.87
2019-03-21T06:33:41.433Z,56.40
2019-03-21T06:34:41.603Z,62.50
2019-03-21T06:35:41.775Z,65.19
2019-03-21T06:36:41.950Z,65.92
2019-03-21T06:37:42.111Z,72.27
2019-03-21T06:38:42.287Z,62.99
2019-03-21T06:39:42.470Z,61.28
2019-03-21T06:40:42.627Z,54.44
2019-03-21T06:41:42.803Z,75.44
2019-03-21T06:42:43.029Z,74.71
2019-03-21T06:43:43.220Z,55.91
2019-03-21T06:44:43.371Z,55.66
2019-03-21T06:45:48.204Z,64.21
2019-03-21T06:46:49.317Z,58.35
2019-03-21T06:47:43.844Z,55.66
2019-03-21T06:48:44.078Z,59.33
2019-03-21T06:49:46.497Z,63.96
2019-03-21T06:50:44.379Z,57.86
2019-03-21T06:51:44.524Z,56.40
2019-03-21T06:52:44.736Z,63.96
2019-03-21T06:53:44.862Z,61.77
2019-03-21T06:54:45.046Z,61.28
2019-03-21T06:55:45.233Z,63.72
2019-03-21T06:56:45.421Z,60.79
2019-03-21T06:57:45.524Z,62.50
2019-03-21T06:58:45.691Z,59.57
2019-03-21T06:59:45.891Z,58.35
2019-03-21T07:00:46.082Z,68.12
2019-03-21T07:01:46.197Z,66.41
2019-03-21T07:02:46.338Z,70.07
2019-03-21T07:03:46.526Z,68.12
2019-03-21T07:04:46.733Z,61.52
2019-03-21T07:05:46.878Z,61.77
2019-03-21T07:06:47.051Z,61.28
2019-03-21T07:07:47.276Z,70.31
2019-03-21T07:08:47.404Z,62.74
2019-03-21T07:09:47.571Z,64.45
2019-03-21T07:10:47.724Z,67.38
2019-03-21T07:11:47.889Z,63.96
2019-03-21T07:12:48.071Z,62.50
2019-03-21T07:13:48.255Z,62.26
2019-03-21T07:14:48.375Z,61.77
2019-03-21T07:15:48.600Z,70.07
2019-03-21T07:16:59.804Z,62.01
2019-03-21T07:17:48.931Z,63.23
2019-03-21T07:18:49.164Z,60.79
2019-03-21T07:19:49.297Z,60.55
2019-03-21T07:20:49.479Z,61.28
2019-03-21T07:21:49.642Z,66.16
2019-03-21T07:22:49.811Z,59.33
2019-03-21T07:23:49.953Z,60.30
2019-03-21T07:24:50.167Z,55.42
2019-03-21T07:25:50.436Z,59.81
2019-03-21T07:26:50.498Z,63.72
2019-03-21T07:27:50.771Z,61.04
2019-03-21T07:28:50.907Z,61.04
2019-03-21T07:29:51.090Z,64.45
2019-03-21T07:30:51.251Z,65.92
2019-03-21T07:31:51.446Z,60.79
2019-03-21T07:32:52.471Z,66.16
2019-03-21T07:33:51.865Z,63.96
2019-03-21T07:34:51.998Z,61.52
2019-03-21T07:35:52.194Z,60.79
2019-03-21T07:36:52.389Z,64.70
2019-03-21T07:37:52.718Z,75.44
2019-03-21T07:38:52.719Z,66.16
2019-03-21T07:39:52.859Z,64.45
2019-03-21T07:40:53.039Z,60.55
2019-03-21T07:41:53.247Z,61.52
2019-03-21T07:42:53.419Z,62.01
2019-03-21T07:43:53.555Z,75.44
2019-03-21T07:44:53.759Z,61.77
2019-03-21T07:45:54.049Z,68.85
2019-03-21T07:46:54.160Z,67.87
2019-03-21T07:47:54.301Z,66.89
2019-03-21T07:48:54.496Z,58.59
2019-03-21T07:49:54.696Z,73.49
2019-03-21T07:50:54.838Z,72.75
2019-03-21T07:51:54.981Z,74.46
2019-03-21T07:52:55.218Z,60.55
2019-03-21T07:53:55.353Z,61.04
2019-03-21T07:54:55.509Z,63.48
2019-03-21T07:55:55.736Z,63.96
2019-03-21T07:56:55.941Z,66.65
2019-03-21T07:57:56.176Z,60.79
2019-03-21T07:58:57.851Z,67.63
2019-03-21T07:59:56.391Z,60.79
2019-03-21T08:00:56.576Z,66.16
2019-03-21T08:01:56.738Z,62.26
2019-03-21T08:02:56.908Z,68.60
2019-03-21T08:03:57.096Z,60.30
2019-03-21T08:04:57.271Z,72.51
2019-03-21T08:05:57.411Z,71.78
2019-03-21T08:06:57.589Z,62.99
2019-03-21T08:07:57.781Z,64.94
2019-03-21T08:08:57.941Z,68.85
2019-03-21T08:09:58.117Z,62.01
2019-03-21T08:10:58.420Z,76.17
2019-03-21T08:11:58.848Z,61.28
2019-03-21T08:12:59.119Z,70.80
2019-03-21T08:13:58.861Z,70.56
2019-03-21T08:14:58.948Z,60.79
2019-03-21T08:15:59.159Z,62.99
2019-03-21T08:16:59.376Z,70.31
2019-03-21T08:17:59.489Z,59.57
2019-03-21T08:18:59.702Z,63.23
2019-03-21T08:19:59.819Z,65.67
2019-03-21T08:21:00.292Z,66.89
2019-03-21T08:22:00.198Z,75.20
2019-03-21T08:23:00.486Z,60.79
2019-03-21T08:24:00.561Z,63.23
2019-03-21T08:25:00.775Z,62.01
2019-03-21T08:26:01.073Z,65.43
2019-03-21T08:27:01.079Z,65.19
2019-03-21T08:28:01.242Z,64.94
2019-03-21T08:29:01.472Z,60.55
2019-03-21T08:30:01.619Z,68.36
2019-03-21T08:31:01.760Z,62.50
2019-03-21T08:34:34.320Z,66.16
2019-03-21T08:35:35.091Z,63.96
2019-03-21T08:36:35.551Z,67.63
2019-03-21T08:37:34.754Z,64.94
2019-03-21T08:38:34.915Z,71.53
2019-03-21T08:39:35.149Z,65.19
2019-03-21T08:40:35.365Z,65.92
2019-03-21T08:41:35.493Z,59.81
2019-03-21T08:42:35.625Z,63.23
2019-03-21T08:43:35.834Z,69.09
2019-03-21T08:44:36.003Z,66.16
2019-03-21T08:45:36.223Z,64.45
2019-03-21T08:46:36.376Z,57.13
2019-03-21T08:47:37.148Z,69.82
2019-03-21T08:48:36.788Z,60.79
2019-03-21T08:49:36.942Z,60.06
2019-03-21T08:50:37.142Z,60.55
2019-03-21T08:51:37.349Z,73.00
2019-03-21T08:52:37.461Z,62.50
2019-03-21T08:53:37.614Z,58.59
2019-03-21T08:54:37.791Z,62.99
2019-03-21T08:55:37.973Z,67.14
2019-03-21T08:56:38.235Z,64.94
2019-03-21T08:57:38.354Z,68.12
2019-03-21T08:58:38.592Z,64.70
2019-03-21T08:59:38.734Z,62.01
2019-03-21T09:01:39.096Z,66.16
2019-03-21T09:02:39.288Z,62.74
2019-03-21T09:03:39.563Z,74.71
2019-03-21T09:04:39.637Z,73.24
2019-03-21T09:05:39.808Z,76.42
2019-03-21T09:06:39.970Z,72.51
2019-03-21T09:07:40.257Z,63.48
2019-03-21T09:08:40.325Z,71.29
2019-03-21T09:09:40.537Z,72.51
2019-03-21T09:10:40.653Z,74.46
2019-03-21T09:11:40.838Z,73.00
2019-03-21T09:12:42.662Z,71.53
2019-03-21T09:13:41.213Z,66.65
2019-03-21T09:14:41.381Z,70.80
2019-03-21T09:15:41.557Z,64.70
2019-03-21T09:16:41.737Z,65.43
2019-03-21T09:17:41.926Z,66.16
2019-03-21T09:18:42.103Z,62.74
2019-03-21T09:19:42.291Z,67.63
2019-03-21T09:20:42.475Z,65.19
2019-03-21T09:21:42.664Z,68.60
2019-03-21T09:22:42.837Z,70.07
2019-03-21T09:23:43.008Z,59.57
2019-03-21T09:24:43.195Z,61.28
2019-03-21T09:25:43.375Z,59.81
2019-03-21T09:26:43.557Z,63.96
2019-03-21T09:27:43.756Z,63.72
2019-03-21T09:28:43.924Z,66.16
2019-03-21T09:29:53.099Z,65.19
2019-03-21T09:30:44.291Z,67.14
2019-03-21T09:31:44.473Z,67.63
2019-03-21T09:32:44.719Z,66.65
2019-03-21T09:33:44.874Z,63.72
2019-03-21T09:34:45.059Z,61.04
2019-03-21T09:35:45.244Z,70.07
2019-03-21T09:36:45.458Z,63.48
2019-03-21T09:37:45.598Z,65.92
2019-03-21T09:38:45.780Z,57.62
2019-03-21T09:39:45.972Z,64.21
2019-03-21T09:40:46.158Z,84.72
2019-03-21T09:41:46.330Z,75.44
2019-03-21T09:42:46.517Z,66.41
2019-03-21T09:43:46.700Z,64.70
2019-03-21T09:44:46.903Z,62.50
2019-03-21T09:45:47.100Z,66.41
2019-03-21T09:46:51.009Z,64.70
2019-03-21T09:47:47.449Z,76.90
2019-03-21T09:48:47.618Z,57.37
2019-03-21T09:49:47.797Z,61.52
2019-03-21T09:50:47.984Z,61.52
2019-03-21T09:51:48.166Z,69.82
2019-03-21T09:52:48.359Z,62.99
2019-03-21T09:53:48.533Z,57.86
2019-03-21T09:54:48.715Z,63.72
2019-03-21T09:55:48.899Z,66.16
2019-03-21T09:56:49.082Z,63.72
2019-03-21T09:57:49.254Z,63.23
2019-03-21T09:58:49.449Z,60.30
2019-03-21T09:59:49.615Z,75.93
2019-03-21T10:00:49.798Z,68.12
2019-03-21T10:01:49.987Z,62.50
2019-03-21T10:02:50.164Z,68.12
2019-03-21T10:03:50.343Z,66.65
2019-03-21T10:04:50.539Z,61.52
2019-03-21T10:05:51.202Z,66.41
2019-03-21T10:06:50.862Z,62.74
2019-03-21T10:07:51.045Z,66.16
2019-03-21T10:08:51.247Z,62.99
2019-03-21T10:09:51.414Z,65.19
2019-03-21T10:10:51.605Z,63.72
2019-03-21T10:11:51.781Z,66.65
2019-03-21T10:12:51.963Z,72.27
2019-03-21T10:13:52.148Z,73.73
2019-03-21T10:14:52.333Z,70.31
2019-03-21T10:15:52.535Z,71.78
2019-03-21T10:16:52.700Z,72.51
2019-03-21T10:17:52.877Z,74.46
2019-03-21T10:18:53.060Z,70.80
2019-03-21T10:19:53.247Z,79.35
2019-03-21T10:20:53.415Z,69.58
2019-03-21T10:21:53.607Z,62.50
2019-03-21T10:22:53.791Z,63.48
2019-03-21T10:23:53.974Z,67.38
2019-03-21T10:24:54.156Z,60.06
2019-03-21T10:25:54.399Z,66.89
2019-03-21T10:26:54.994Z,62.50
2019-03-21T10:27:54.696Z,64.21
2019-03-21T10:28:54.966Z,60.55
2019-03-21T10:29:55.158Z,66.89
2019-03-21T10:30:57.306Z,64.70
2019-03-21T10:31:55.403Z,61.28
2019-03-21T10:32:55.572Z,71.04
2019-03-21T10:33:55.812Z,61.52
2019-03-21T10:34:55.884Z,64.21
2019-03-21T10:35:56.085Z,62.99
2019-03-21T10:36:56.224Z,55.66
2019-03-21T10:37:56.414Z,63.23
2019-03-21T10:38:56.616Z,63.96
2019-03-21T10:39:56.769Z,63.23
2019-03-21T10:40:56.964Z,63.23
2019-03-21T10:41:57.138Z,62.99
2019-03-21T10:42:57.315Z,55.66
2019-03-21T10:43:57.499Z,58.35
2019-03-21T10:44:57.692Z,55.42
2019-03-21T10:45:57.870Z,65.92
2019-03-21T10:46:58.063Z,67.87
2019-03-21T10:47:58.260Z,60.06
2019-03-21T10:48:58.426Z,67.63
2019-03-21T10:49:58.623Z,62.99
2019-03-21T10:50:58.824Z,67.63
2019-03-21T10:51:58.979Z,72.75
2019-03-21T10:52:59.229Z,63.72
2019-03-21T10:53:59.274Z,68.85
2019-03-21T10:54:59.452Z,71.53
2019-03-21T10:55:59.622Z,70.80
2019-03-21T10:56:59.808Z,58.84
2019-03-21T10:57:59.986Z,60.30
2019-03-21T10:59:00.319Z,61.52
2019-03-21T11:00:01.794Z,63.48
2019-03-21T11:01:00.463Z,79.59
2019-03-21T11:02:07.319Z,84.47
2019-03-21T11:03:01.288Z,82.28
2019-03-21T11:04:01.674Z,83.74
2019-03-21T11:05:01.351Z,84.96
2019-03-21T11:06:02.062Z,84.47
2019-03-21T11:07:01.844Z,69.82
2019-03-21T11:08:02.810Z,64.70
2019-03-21T11:09:02.208Z,59.08
2019-03-21T11:10:02.385Z,60.79
2019-03-21T11:11:03.610Z,64.21
2019-03-21T11:12:03.098Z,61.04
2019-03-21T11:13:03.014Z,71.53
2019-03-21T11:14:03.135Z,66.65
2019-03-21T11:15:06.555Z,64.21
2019-03-21T11:16:03.689Z,61.52
2019-03-21T11:17:04.387Z,65.92
2019-03-21T11:18:03.946Z,62.74
2019-03-21T11:19:04.317Z,64.21
2019-03-21T11:20:04.115Z,62.74
2019-03-21T11:21:05.772Z,58.59
2019-03-21T11:22:06.663Z,59.81
2019-03-21T11:23:04.742Z,58.84
2019-03-21T11:24:04.923Z,67.63
2019-03-21T11:25:05.182Z,64.94
2019-03-21T11:26:05.303Z,61.04
2019-03-21T11:27:05.473Z,57.37
2019-03-21T11:28:05.674Z,63.48
2019-03-21T11:29:06.211Z,57.37
2019-03-21T11:30:15.682Z,71.78
2019-03-21T11:31:06.262Z,56.88
2019-03-21T11:32:06.808Z,58.59
2019-03-21T11:33:09.130Z,61.52
2019-03-21T11:34:11.946Z,58.84
2019-03-21T11:35:07.153Z,67.38
2019-03-21T11:36:08.837Z,62.99
2019-03-21T11:37:08.129Z,62.01
2019-03-21T11:38:07.848Z,67.14
2019-03-21T11:39:08.964Z,73.73
2019-03-21T11:40:08.467Z,65.92
2019-03-21T11:41:09.426Z,59.81
2019-03-21T11:42:09.037Z,64.70
2019-03-21T11:43:09.028Z,59.08
2019-03-21T11:44:09.003Z,58.35
2019-03-21T11:45:09.235Z,69.34
2019-03-21T11:46:09.236Z,61.77
2019-03-21T11:47:09.396Z,60.30
2019-03-21T11:48:09.574Z,63.72
2019-03-21T11:49:09.757Z,62.50
2019-03-21T11:50:09.941Z,61.28
2019-03-21T11:51:10.121Z,61.28
2019-03-21T11:52:18.156Z,71.04
2019-03-21T11:53:10.552Z,69.58
2019-03-21T11:54:10.728Z,60.79
2019-03-21T11:55:10.908Z,77.39
2019-03-21T11:56:13.094Z,82.52
2019-03-21T11:57:11.285Z,81.30
2019-03-21T11:58:11.473Z,82.76
2019-03-21T11:59:11.663Z,82.76
2019-03-21T12:00:11.845Z,81.05
2019-03-21T12:01:12.036Z,81.30
2019-03-21T12:02:12.234Z,82.76
2019-03-21T12:03:14.329Z,82.52
2019-03-21T12:04:14.224Z,82.03
2019-03-21T12:05:12.709Z,81.79
2019-03-21T12:06:12.897Z,77.39
2019-03-21T12:07:13.062Z,66.89
2019-03-21T12:08:13.236Z,56.88
2019-03-21T12:09:13.405Z,63.72
2019-03-21T12:10:13.628Z,64.45
2019-03-21T12:11:14.875Z,62.26
2019-03-21T12:12:15.977Z,65.67
2019-03-21T12:13:14.057Z,77.88
2019-03-21T12:14:16.405Z,62.50
2019-03-21T12:15:14.670Z,65.92
2019-03-21T12:16:14.624Z,59.57
2019-03-21T12:17:14.823Z,65.43
2019-03-21T12:18:15.066Z,67.63
2019-03-21T12:19:15.178Z,60.79
2019-03-21T12:20:15.364Z,59.08
2019-03-21T12:21:15.654Z,66.89
2019-03-21T12:22:15.724Z,67.38
2019-03-21T12:23:16.212Z,70.31
2019-03-21T12:24:16.921Z,65.19
2019-03-21T12:25:16.572Z,63.23
2019-03-21T12:26:17.062Z,59.57
2019-03-21T12:27:16.684Z,63.48
2019-03-21T12:28:16.857Z,83.01
2019-03-21T12:29:17.038Z,81.05
2019-03-21T12:30:17.329Z,84.47
2019-03-21T12:31:17.785Z,65.19
2019-03-21T12:32:17.594Z,64.94
2019-03-21T12:33:17.946Z,67.63
2019-03-21T12:34:17.957Z,66.65
2019-03-21T12:35:18.313Z,80.57
2019-03-21T12:36:18.354Z,62.50
2019-03-21T12:37:18.799Z,62.99
2019-03-21T12:38:18.568Z,60.55
2019-03-21T12:39:18.732Z,63.72
2019-03-21T12:40:18.914Z,68.60
2019-03-21T12:41:19.107Z,63.96
2019-03-21T12:42:19.263Z,73.73
2019-03-21T12:43:19.446Z,66.65
2019-03-21T12:44:19.633Z,77.88
2019-03-21T12:45:19.819Z,70.31
2019-03-21T12:46:19.959Z,62.99
2019-03-21T12:47:30.763Z,70.31
2019-03-21T12:48:20.338Z,62.26
2019-03-21T12:49:20.517Z,57.86
2019-03-21T12:50:20.710Z,67.38
2019-03-21T12:51:20.877Z,63.96
2019-03-21T12:52:21.055Z,60.30
2019-03-21T12:53:21.242Z,63.23
2019-03-21T12:54:21.429Z,61.52
2019-03-21T12:55:21.607Z,59.33
2019-03-21T12:56:21.833Z,69.34
2019-03-21T12:57:21.949Z,92.29
2019-03-21T12:58:22.119Z,66.16
2019-03-21T12:59:22.303Z,63.48
2019-03-21T13:00:22.482Z,70.56
2019-03-21T13:01:22.667Z,63.48
2019-03-21T13:02:31.985Z,84.72
2019-03-21T13:03:23.021Z,87.16